Lake Lincoln, Indiana
Current Conditions -  °F | °C
As of 7:15 AM on Thursday 30 Oct 2014 (Local Time) from KHNB Reporting Station
Clear Clear  
Wind Chill:   Ceiling: Unl
Heat Index:   Visibility: 2.5mi
Dew Point: -1°   Wind: 3mph
Humidity: 87%   Direction: 70°ENE
Pressure: 30.18"   Gusts: NA
Location:  38.1283°N, 86.9862°W
Report Text: KHNB 301215Z AUTO 07003KT 2 1/2SM CLR 01/M01 A3018 RMK AO1
Loading
Personal Weather Stations






























Interactive Weather Map
Tropical Storm Tracking
New forecast layout! Learn more

10-Day Weather Forecast

Advertisements
Track Severe Weather on mobile